sensor_id;sensor_type;location;lat;lon;timestamp;pressure;altitude;pressure_sealevel;temperature;humidity
51099;BME280;37146;48.210;16.234;2023-06-10T00:01:34;98419.19;;;13.96;100.00
51099;BME280;37146;48.210;16.234;2023-06-10T00:04:01;98431.38;;;13.89;100.00
51099;BME280;37146;48.210;16.234;2023-06-10T00:06:27;98434.56;;;13.94;100.00
51099;BME280;37146;48.210;16.234;2023-06-10T00:08:53;98429.47;;;14.02;100.00
51099;BME280;37146;48.210;16.234;2023-06-10T00:11:20;98429.94;;;13.96;100.00
51099;BME280;37146;48.210;16.234;2023-06-10T00:13:46;98427.47;;;13.93;100.00
51099;BME280;37146;48.210;16.234;2023-06-10T00:16:11;98428.22;;;13.95;100.00
51099;BME280;37146;48.210;16.234;2023-06-10T00:18:37;98416.88;;;14.03;100.00
51099;BME280;37146;48.210;16.234;2023-06-10T00:21:03;98426.28;;;13.97;100.00
51099;BME280;37146;48.210;16.234;2023-06-10T00:23:30;98431.13;;;13.92;100.00
51099;BME280;37146;48.210;16.234;2023-06-10T00:26:02;98428.44;;;13.92;100.00
51099;BME280;37146;48.210;16.234;2023-06-10T00:28:27;98429.72;;;13.99;100.00
51099;BME280;37146;48.210;16.234;2023-06-10T00:30:53;98431.19;;;14.03;100.00
51099;BME280;37146;48.210;16.234;2023-06-10T00:33:18;98424.34;;;13.99;100.00
51099;BME280;37146;48.210;16.234;2023-06-10T00:35:43;98429.31;;;13.93;100.00
51099;BME280;37146;48.210;16.234;2023-06-10T00:38:08;98435.88;;;13.88;100.00
51099;BME280;37146;48.210;16.234;2023-06-10T00:40:39;98433.59;;;13.95;100.00
51099;BME280;37146;48.210;16.234;2023-06-10T00:43:04;98433.41;;;13.85;100.00
51099;BME280;37146;48.210;16.234;2023-06-10T00:45:29;98437.06;;;13.84;100.00
51099;BME280;37146;48.210;16.234;2023-06-10T00:47:55;98438.56;;;13.88;100.00
51099;BME280;37146;48.210;16.234;2023-06-10T00:50:20;98435.75;;;13.90;100.00
51099;BME280;37146;48.210;16.234;2023-06-10T00:52:45;98444.13;;;13.98;100.00
51099;BME280;37146;48.210;16.234;2023-06-10T00:55:13;98432.28;;;14.01;100.00
51099;BME280;37146;48.210;16.234;2023-06-10T00:57:39;98441.50;;;14.10;100.00
51099;BME280;37146;48.210;16.234;2023-06-10T01:00:04;98437.81;;;14.11;100.00
51099;BME280;37146;48.210;16.234;2023-06-10T01:02:32;98434.66;;;14.17;100.00
51099;BME280;37146;48.210;16.234;2023-06-10T01:04:58;98446.16;;;14.19;100.00
51099;BME280;37146;48.210;16.234;2023-06-10T01:10:11;98441.22;;;14.13;100.00
51099;BME280;37146;48.210;16.234;2023-06-10T01:15:05;98440.25;;;14.14;100.00
51099;BME280;37146;48.210;16.234;2023-06-10T01:17:30;98444.22;;;14.21;100.00
51099;BME280;37146;48.210;16.234;2023-06-10T01:19:56;98449.59;;;14.21;100.00
51099;BME280;37146;48.210;16.234;2023-06-10T01:22:25;98450.56;;;14.20;100.00
51099;BME280;37146;48.210;16.234;2023-06-10T01:24:53;98451.31;;;14.22;100.00
51099;BME280;37146;48.210;16.234;2023-06-10T01:27:19;98451.53;;;14.19;100.00
51099;BME280;37146;48.210;16.234;2023-06-10T01:29:50;98445.59;;;14.27;100.00
51099;BME280;37146;48.210;16.234;2023-06-10T01:32:28;98450.84;;;14.28;100.00
51099;BME280;37146;48.210;16.234;2023-06-10T01:34:54;98437.88;;;14.22;100.00
51099;BME280;37146;48.210;16.234;2023-06-10T01:37:20;98448.31;;;14.38;100.00
51099;BME280;37146;48.210;16.234;2023-06-10T01:39:49;98452.59;;;14.41;100.00
51099;BME280;37146;48.210;16.234;2023-06-10T01:42:15;98447.00;;;14.44;100.00
51099;BME280;37146;48.210;16.234;2023-06-10T01:44:40;98444.28;;;14.44;100.00
51099;BME280;37146;48.210;16.234;2023-06-10T01:47:07;98447.59;;;14.47;100.00
51099;BME280;37146;48.210;16.234;2023-06-10T01:49:32;98449.41;;;14.47;100.00
51099;BME280;37146;48.210;16.234;2023-06-10T01:51:57;98453.56;;;14.40;100.00
51099;BME280;37146;48.210;16.234;2023-06-10T01:54:22;98449.03;;;14.40;100.00
51099;BME280;37146;48.210;16.234;2023-06-10T01:56:47;98447.97;;;14.43;100.00
51099;BME280;37146;48.210;16.234;2023-06-10T01:59:13;98453.34;;;14.43;100.00
51099;BME280;37146;48.210;16.234;2023-06-10T02:01:38;98452.25;;;14.45;100.00
51099;BME280;37146;48.210;16.234;2023-06-10T02:04:03;98454.81;;;14.47;100.00
51099;BME280;37146;48.210;16.234;2023-06-10T02:06:28;98460.94;;;14.49;100.00
51099;BME280;37146;48.210;16.234;2023-06-10T02:08:54;98453.72;;;14.49;100.00
51099;BME280;37146;48.210;16.234;2023-06-10T02:11:19;98462.13;;;14.45;100.00
51099;BME280;37146;48.210;16.234;2023-06-10T02:13:44;98455.38;;;14.39;100.00
51099;BME280;37146;48.210;16.234;2023-06-10T02:16:09;98455.25;;;14.29;100.00
51099;BME280;37146;48.210;16.234;2023-06-10T02:18:38;98462.44;;;14.29;100.00
51099;BME280;37146;48.210;16.234;2023-06-10T02:21:03;98455.75;;;14.34;100.00
51099;BME280;37146;48.210;16.234;2023-06-10T02:23:28;98453.19;;;14.33;100.00
51099;BME280;37146;48.210;16.234;2023-06-10T02:25:53;98460.88;;;14.37;100.00
51099;BME280;37146;48.210;16.234;2023-06-10T02:28:19;98451.84;;;14.38;100.00
51099;BME280;37146;48.210;16.234;2023-06-10T02:30:44;98453.31;;;14.31;100.00
51099;BME280;37146;48.210;16.234;2023-06-10T02:33:10;98453.56;;;14.40;100.00
51099;BME280;37146;48.210;16.234;2023-06-10T02:35:36;98455.50;;;14.37;100.00
51099;BME280;37146;48.210;16.234;2023-06-10T02:38:01;98453.88;;;14.23;100.00
51099;BME280;37146;48.210;16.234;2023-06-10T02:40:27;98456.97;;;14.30;100.00
51099;BME280;37146;48.210;16.234;2023-06-10T02:42:52;98456.72;;;14.33;100.00
51099;BME280;37146;48.210;16.234;2023-06-10T02:45:17;98456.25;;;14.40;100.00
51099;BME280;37146;48.210;16.234;2023-06-10T02:47:42;98452.94;;;14.36;100.00
51099;BME280;37146;48.210;16.234;2023-06-10T02:50:08;98457.72;;;14.32;100.00
51099;BME280;37146;48.210;16.234;2023-06-10T02:52:33;98452.34;;;14.32;100.00
51099;BME280;37146;48.210;16.234;2023-06-10T02:54:58;98457.22;;;14.38;100.00
51099;BME280;37146;48.210;16.234;2023-06-10T02:57:23;98454.91;;;14.34;100.00
51099;BME280;37146;48.210;16.234;2023-06-10T02:59:49;98462.38;;;14.42;100.00
51099;BME280;37146;48.210;16.234;2023-06-10T03:02:14;98463.75;;;14.47;100.00
51099;BME280;37146;48.210;16.234;2023-06-10T03:04:39;98464.72;;;14.46;100.00
51099;BME280;37146;48.210;16.234;2023-06-10T03:07:06;98464.38;;;14.51;100.00
51099;BME280;37146;48.210;16.234;2023-06-10T03:09:32;98465.34;;;14.50;100.00
51099;BME280;37146;48.210;16.234;2023-06-10T03:11:57;98466.53;;;14.46;100.00
51099;BME280;37146;48.210;16.234;2023-06-10T03:14:24;98467.06;;;14.51;100.00
51099;BME280;37146;48.210;16.234;2023-06-10T03:16:49;98460.19;;;14.47;100.00
51099;BME280;37146;48.210;16.234;2023-06-10T03:19:15;98466.19;;;14.50;100.00
51099;BME280;37146;48.210;16.234;2023-06-10T03:21:43;98463.50;;;14.50;100.00
51099;BME280;37146;48.210;16.234;2023-06-10T03:24:08;98465.84;;;14.55;100.00
51099;BME280;37146;48.210;16.234;2023-06-10T03:26:34;98464.13;;;14.54;100.00
51099;BME280;37146;48.210;16.234;2023-06-10T03:28:59;98465.13;;;14.53;100.00
51099;BME280;37146;48.210;16.234;2023-06-10T03:31:24;98463.41;;;14.52;100.00
51099;BME280;37146;48.210;16.234;2023-06-10T03:33:49;98460.34;;;14.57;100.00
51099;BME280;37146;48.210;16.234;2023-06-10T03:36:15;98458.03;;;14.63;100.00
51099;BME280;37146;48.210;16.234;2023-06-10T03:38:40;98464.81;;;14.69;100.00
51099;BME280;37146;48.210;16.234;2023-06-10T03:41:05;98462.00;;;14.71;100.00
51099;BME280;37146;48.210;16.234;2023-06-10T03:43:30;98458.56;;;14.68;100.00
51099;BME280;37146;48.210;16.234;2023-06-10T03:45:56;98464.56;;;14.72;100.00
51099;BME280;37146;48.210;16.234;2023-06-10T03:48:21;98463.72;;;14.72;100.00
51099;BME280;37146;48.210;16.234;2023-06-10T03:50:46;98469.34;;;14.80;100.00
51099;BME280;37146;48.210;16.234;2023-06-10T03:53:12;98475.00;;;14.77;100.00
51099;BME280;37146;48.210;16.234;2023-06-10T03:55:37;98475.25;;;14.85;100.00
51099;BME280;37146;48.210;16.234;2023-06-10T03:58:03;98474.28;;;14.86;100.00
51099;BME280;37146;48.210;16.234;2023-06-10T04:00:28;98473.16;;;14.89;100.00
51099;BME280;37146;48.210;16.234;2023-06-10T04:02:53;98472.06;;;14.91;100.00
51099;BME280;37146;48.210;16.234;2023-06-10T04:05:23;98482.59;;;14.94;100.00
51099;BME280;37146;48.210;16.234;2023-06-10T04:07:48;98480.38;;;14.99;100.00
51099;BME280;37146;48.210;16.234;2023-06-10T04:10:13;98482.84;;;15.03;100.00
51099;BME280;37146;48.210;16.234;2023-06-10T04:12:39;98479.19;;;15.04;100.00
51099;BME280;37146;48.210;16.234;2023-06-10T04:15:05;98485.31;;;15.06;100.00
51099;BME280;37146;48.210;16.234;2023-06-10T04:17:30;98480.91;;;15.05;100.00
51099;BME280;37146;48.210;16.234;2023-06-10T04:19:56;98482.63;;;15.06;100.00
51099;BME280;37146;48.210;16.234;2023-06-10T04:22:21;98485.06;;;15.09;100.00
51099;BME280;37146;48.210;16.234;2023-06-10T04:24:47;98479.41;;;15.12;100.00
51099;BME280;37146;48.210;16.234;2023-06-10T04:27:12;98476.50;;;15.15;100.00
51099;BME280;37146;48.210;16.234;2023-06-10T04:29:38;98472.97;;;15.26;100.00
51099;BME280;37146;48.210;16.234;2023-06-10T04:32:03;98478.94;;;15.29;100.00
51099;BME280;37146;48.210;16.234;2023-06-10T04:34:30;98485.31;;;15.28;100.00
51099;BME280;37146;48.210;16.234;2023-06-10T04:36:55;98473.44;;;15.31;100.00
51099;BME280;37146;48.210;16.234;2023-06-10T04:39:21;98474.41;;;15.30;100.00
51099;BME280;37146;48.210;16.234;2023-06-10T04:41:47;98473.28;;;15.33;100.00
51099;BME280;37146;48.210;16.234;2023-06-10T04:44:12;98469.63;;;15.34;100.00
51099;BME280;37146;48.210;16.234;2023-06-10T04:46:38;98477.59;;;15.35;100.00
51099;BME280;37146;48.210;16.234;2023-06-10T04:49:04;98477.47;;;15.37;100.00
51099;BME280;37146;48.210;16.234;2023-06-10T04:51:30;98478.22;;;15.39;100.00
51099;BME280;37146;48.210;16.234;2023-06-10T04:53:55;98477.34;;;15.38;100.00
51099;BME280;37146;48.210;16.234;2023-06-10T04:56:20;98478.44;;;15.47;100.00
51099;BME280;37146;48.210;16.234;2023-06-10T04:58:46;98473.78;;;15.49;100.00
51099;BME280;37146;48.210;16.234;2023-06-10T05:01:11;98478.81;;;15.54;100.00
51099;BME280;37146;48.210;16.234;2023-06-10T05:03:36;98478.78;;;15.65;100.00
51099;BME280;37146;48.210;16.234;2023-06-10T05:06:02;98484.56;;;15.72;100.00
51099;BME280;37146;48.210;16.234;2023-06-10T05:08:27;98476.09;;;15.76;100.00
51099;BME280;37146;48.210;16.234;2023-06-10T05:10:52;98473.00;;;15.81;100.00
51099;BME280;37146;48.210;16.234;2023-06-10T05:13:17;98473.88;;;15.82;100.00
51099;BME280;37146;48.210;16.234;2023-06-10T05:15:43;98480.63;;;15.76;100.00
51099;BME280;37146;48.210;16.234;2023-06-10T05:18:09;98475.25;;;15.76;100.00
51099;BME280;37146;48.210;16.234;2023-06-10T05:20:34;98466.28;;;15.75;100.00
51099;BME280;37146;48.210;16.234;2023-06-10T05:23:00;98483.31;;;15.76;100.00
51099;BME280;37146;48.210;16.234;2023-06-10T05:25:26;98476.69;;;15.80;100.00
51099;BME280;37146;48.210;16.234;2023-06-10T05:27:51;98478.19;;;15.84;100.00
51099;BME280;37146;48.210;16.234;2023-06-10T05:30:17;98482.59;;;15.85;100.00
51099;BME280;37146;48.210;16.234;2023-06-10T05:32:43;98485.66;;;15.81;100.00
51099;BME280;37146;48.210;16.234;2023-06-10T05:35:08;98481.84;;;15.83;100.00
51099;BME280;37146;48.210;16.234;2023-06-10T05:37:34;98480.63;;;15.87;100.00
51099;BME280;37146;48.210;16.234;2023-06-10T05:40:01;98485.16;;;15.87;100.00
51099;BME280;37146;48.210;16.234;2023-06-10T05:42:27;98491.53;;;15.86;100.00
51099;BME280;37146;48.210;16.234;2023-06-10T05:44:52;98490.69;;;15.85;100.00
51099;BME280;37146;48.210;16.234;2023-06-10T05:47:17;98493.84;;;15.90;100.00
51099;BME280;37146;48.210;16.234;2023-06-10T05:49:42;98498.16;;;15.82;100.00
51099;BME280;37146;48.210;16.234;2023-06-10T05:52:07;98495.56;;;15.91;100.00
51099;BME280;37146;48.210;16.234;2023-06-10T05:54:33;98495.44;;;15.93;100.00
51099;BME280;37146;48.210;16.234;2023-06-10T05:56:58;98503.28;;;15.96;100.00
51099;BME280;37146;48.210;16.234;2023-06-10T05:59:23;98502.66;;;16.04;100.00
51099;BME280;37146;48.210;16.234;2023-06-10T06:01:49;98502.63;;;16.15;100.00
51099;BME280;37146;48.210;16.234;2023-06-10T06:04:15;98505.06;;;16.18;100.00
51099;BME280;37146;48.210;16.234;2023-06-10T06:06:40;98500.16;;;16.12;100.00
51099;BME280;37146;48.210;16.234;2023-06-10T06:09:05;98497.47;;;16.12;100.00
51099;BME280;37146;48.210;16.234;2023-06-10T06:11:30;98500.91;;;16.14;100.00
51099;BME280;37146;48.210;16.234;2023-06-10T06:13:56;98493.06;;;16.11;100.00
51099;BME280;37146;48.210;16.234;2023-06-10T06:16:21;98505.81;;;16.20;100.00
51099;BME280;37146;48.210;16.234;2023-06-10T06:18:46;98503.75;;;16.13;100.00
51099;BME280;37146;48.210;16.234;2023-06-10T06:21:12;98506.06;;;16.17;100.00
51099;BME280;37146;48.210;16.234;2023-06-10T06:23:37;98503.69;;;16.24;100.00
51099;BME280;37146;48.210;16.234;2023-06-10T06:26:02;98510.31;;;16.20;100.00
51099;BME280;37146;48.210;16.234;2023-06-10T06:28:27;98511.91;;;16.22;100.00
51099;BME280;37146;48.210;16.234;2023-06-10T06:30:56;98506.53;;;16.11;100.00
51099;BME280;37146;48.210;16.234;2023-06-10T06:33:21;98506.28;;;16.14;100.00
51099;BME280;37146;48.210;16.234;2023-06-10T06:35:47;98513.31;;;16.05;100.00
51099;BME280;37146;48.210;16.234;2023-06-10T06:38:12;98511.84;;;16.01;100.00
51099;BME280;37146;48.210;16.234;2023-06-10T06:40:37;98522.75;;;16.00;100.00
51099;BME280;37146;48.210;16.234;2023-06-10T06:43:02;98516.13;;;16.04;100.00
51099;BME280;37146;48.210;16.234;2023-06-10T06:45:28;98513.94;;;16.09;100.00
51099;BME280;37146;48.210;16.234;2023-06-10T06:47:53;98502.09;;;16.21;100.00
51099;BME280;37146;48.210;16.234;2023-06-10T06:50:18;98519.03;;;16.23;100.00
51099;BME280;37146;48.210;16.234;2023-06-10T06:52:43;98514.09;;;16.29;100.00
51099;BME280;37146;48.210;16.234;2023-06-10T06:55:08;98524.00;;;16.39;100.00
51099;BME280;37146;48.210;16.234;2023-06-10T06:57:34;98521.81;;;16.33;100.00
51099;BME280;37146;48.210;16.234;2023-06-10T06:59:59;98519.84;;;16.35;100.00
51099;BME280;37146;48.210;16.234;2023-06-10T07:02:24;98512.59;;;16.36;100.00
51099;BME280;37146;48.210;16.234;2023-06-10T07:04:50;98520.34;;;16.29;100.00
51099;BME280;37146;48.210;16.234;2023-06-10T07:07:15;98518.53;;;16.30;100.00
51099;BME280;37146;48.210;16.234;2023-06-10T07:09:40;98521.09;;;16.31;100.00
51099;BME280;37146;48.210;16.234;2023-06-10T07:12:06;98519.31;;;16.42;100.00
51099;BME280;37146;48.210;16.234;2023-06-10T07:14:31;98522.41;;;16.37;100.00
51099;BME280;37146;48.210;16.234;2023-06-10T07:16:56;98533.22;;;16.37;100.00
51099;BME280;37146;48.210;16.234;2023-06-10T07:19:21;98526.34;;;16.33;100.00
51099;BME280;37146;48.210;16.234;2023-06-10T07:21:47;98533.94;;;16.39;100.00
51099;BME280;37146;48.210;16.234;2023-06-10T07:24:12;98524.22;;;16.48;100.00
51099;BME280;37146;48.210;16.234;2023-06-10T07:26:38;98527.28;;;16.76;100.00
51099;BME280;37146;48.210;16.234;2023-06-10T07:29:03;98518.63;;;16.82;100.00
51099;BME280;37146;48.210;16.234;2023-06-10T07:31:28;98525.81;;;16.93;100.00
51099;BME280;37146;48.210;16.234;2023-06-10T07:33:53;98529.47;;;17.03;100.00
51099;BME280;37146;48.210;16.234;2023-06-10T07:36:19;98526.06;;;17.01;100.00
51099;BME280;37146;48.210;16.234;2023-06-10T07:38:44;98526.31;;;16.98;100.00
51099;BME280;37146;48.210;16.234;2023-06-10T07:41:09;98529.16;;;16.96;100.00
51099;BME280;37146;48.210;16.234;2023-06-10T07:43:36;98530.28;;;16.94;100.00
51099;BME280;37146;48.210;16.234;2023-06-10T07:46:01;98534.16;;;17.01;100.00
51099;BME280;37146;48.210;16.234;2023-06-10T07:48:26;98526.81;;;16.92;100.00
51099;BME280;37146;48.210;16.234;2023-06-10T07:50:51;98530.28;;;16.94;100.00
51099;BME280;37146;48.210;16.234;2023-06-10T07:53:17;98537.03;;;16.88;100.00
51099;BME280;37146;48.210;16.234;2023-06-10T07:55:42;98538.91;;;17.09;100.00
51099;BME280;37146;48.210;16.234;2023-06-10T07:58:07;98535.88;;;17.02;100.00
51099;BME280;37146;48.210;16.234;2023-06-10T08:00:32;98539.16;;;17.06;100.00
51099;BME280;37146;48.210;16.234;2023-06-10T08:02:58;98536.19;;;17.09;100.00
51099;BME280;37146;48.210;16.234;2023-06-10T08:05:23;98539.34;;;17.35;100.00
51099;BME280;37146;48.210;16.234;2023-06-10T08:07:48;98535.50;;;17.38;100.00
51099;BME280;37146;48.210;16.234;2023-06-10T08:10:13;98537.09;;;17.40;100.00
51099;BME280;37146;48.210;16.234;2023-06-10T08:12:38;98543.41;;;17.51;100.00
51099;BME280;37146;48.210;16.234;2023-06-10T08:15:04;98539.47;;;17.34;100.00
51099;BME280;37146;48.210;16.234;2023-06-10T08:17:30;98542.66;;;17.18;100.00
51099;BME280;37146;48.210;16.234;2023-06-10T08:19:55;98535.28;;;17.20;100.00
51099;BME280;37146;48.210;16.234;2023-06-10T08:22:20;98534.41;;;17.19;100.00
51099;BME280;37146;48.210;16.234;2023-06-10T08:24:46;98539.47;;;17.34;100.00
51099;BME280;37146;48.210;16.234;2023-06-10T08:27:11;98543.09;;;17.44;100.00
51099;BME280;37146;48.210;16.234;2023-06-10T08:29:36;98531.78;;;17.60;100.00
51099;BME280;37146;48.210;16.234;2023-06-10T08:32:01;98544.00;;;17.64;100.00
51099;BME280;37146;48.210;16.234;2023-06-10T08:34:27;98537.09;;;17.71;100.00
51099;BME280;37146;48.210;16.234;2023-06-10T08:36:52;98531.84;;;17.80;100.00
51099;BME280;37146;48.210;16.234;2023-06-10T08:39:20;98541.28;;;17.95;100.00
51099;BME280;37146;48.210;16.234;2023-06-10T08:41:48;98534.50;;;18.11;100.00
51099;BME280;37146;48.210;16.234;2023-06-10T08:46:43;98535.06;;;18.04;100.00
51099;BME280;37146;48.210;16.234;2023-06-10T08:49:10;98532.78;;;18.10;100.00
51099;BME280;37146;48.210;16.234;2023-06-10T08:51:35;98544.78;;;18.17;100.00
51099;BME280;37146;48.210;16.234;2023-06-10T08:54:04;98544.03;;;18.05;100.00
51099;BME280;37146;48.210;16.234;2023-06-10T08:56:31;98543.34;;;18.13;100.00
51099;BME280;37146;48.210;16.234;2023-06-10T08:58:57;98548.03;;;18.11;100.00
51099;BME280;37146;48.210;16.234;2023-06-10T09:01:24;98547.63;;;18.05;100.00
51099;BME280;37146;48.210;16.234;2023-06-10T09:03:50;98541.25;;;18.26;100.00
51099;BME280;37146;48.210;16.234;2023-06-10T09:06:16;98539.84;;;18.61;100.00
51099;BME280;37146;48.210;16.234;2023-06-10T09:08:43;98541.41;;;18.74;100.00
51099;BME280;37146;48.210;16.234;2023-06-10T09:11:08;98536.53;;;18.38;100.00
51099;BME280;37146;48.210;16.234;2023-06-10T09:13:33;98542.84;;;18.68;100.00
51099;BME280;37146;48.210;16.234;2023-06-10T09:15:59;98541.41;;;18.74;100.00
51099;BME280;37146;48.210;16.234;2023-06-10T09:18:26;98537.84;;;18.63;100.00
51099;BME280;37146;48.210;16.234;2023-06-10T09:20:53;98540.84;;;18.41;100.00
51099;BME280;37146;48.210;16.234;2023-06-10T09:23:19;98538.13;;;18.41;100.00
51099;BME280;37146;48.210;16.234;2023-06-10T09:25:46;98547.97;;;18.51;100.00
51099;BME280;37146;48.210;16.234;2023-06-10T09:28:14;98542.81;;;18.48;100.00
51099;BME280;37146;48.210;16.234;2023-06-10T09:30:40;98541.09;;;18.47;100.00
51099;BME280;37146;48.210;16.234;2023-06-10T09:33:12;98546.53;;;18.57;100.00
51099;BME280;37146;48.210;16.234;2023-06-10T09:35:44;98548.38;;;18.47;100.00
51099;BME280;37146;48.210;16.234;2023-06-10T09:38:10;98546.69;;;18.65;100.00
51099;BME280;37146;48.210;16.234;2023-06-10T09:40:40;98546.81;;;18.54;100.00
51099;BME280;37146;48.210;16.234;2023-06-10T09:43:13;98545.25;;;18.71;100.00
51099;BME280;37146;48.210;16.234;2023-06-10T09:45:39;98548.81;;;18.62;100.00
51099;BME280;37146;48.210;16.234;2023-06-10T09:48:04;98554.25;;;18.72;100.00
51099;BME280;37146;48.210;16.234;2023-06-10T09:50:32;98546.97;;;18.82;100.00
51099;BME280;37146;48.210;16.234;2023-06-10T09:52:58;98545.25;;;19.58;100.00
51099;BME280;37146;48.210;16.234;2023-06-10T09:55:23;98547.06;;;20.69;100.00
51099;BME280;37146;48.210;16.234;2023-06-10T09:57:49;98532.56;;;20.78;100.00
51099;BME280;37146;48.210;16.234;2023-06-10T10:00:14;98537.28;;;20.22;100.00
51099;BME280;37146;48.210;16.234;2023-06-10T10:02:46;98537.69;;;19.99;100.00
51099;BME280;37146;48.210;16.234;2023-06-10T10:05:13;98528.59;;;19.81;100.00
51099;BME280;37146;48.210;16.234;2023-06-10T10:07:39;98527.84;;;19.60;100.00
51099;BME280;37146;48.210;16.234;2023-06-10T10:10:04;98527.13;;;19.58;100.00
51099;BME280;37146;48.210;16.234;2023-06-10T10:12:30;98526.34;;;19.38;100.00
51099;BME280;37146;48.210;16.234;2023-06-10T10:14:55;98532.47;;;19.50;100.00
51099;BME280;37146;48.210;16.234;2023-06-10T10:17:21;98522.66;;;20.23;100.00
51099;BME280;37146;48.210;16.234;2023-06-10T10:19:53;98524.47;;;20.87;100.00
51099;BME280;37146;48.210;16.234;2023-06-10T10:22:25;98520.59;;;20.71;99.73
51099;BME280;37146;48.210;16.234;2023-06-10T10:24:59;98521.84;;;20.59;100.00
51099;BME280;37146;48.210;16.234;2023-06-10T10:27:28;98534.63;;;21.29;98.69
51099;BME280;37146;48.210;16.234;2023-06-10T10:29:55;98537.91;;;21.33;99.16
51099;BME280;37146;48.210;16.234;2023-06-10T10:32:29;98521.06;;;20.84;100.00
51099;BME280;37146;48.210;16.234;2023-06-10T10:34:59;98524.41;;;20.78;100.00
51099;BME280;37146;48.210;16.234;2023-06-10T10:37:29;98520.88;;;20.78;100.00
51099;BME280;37146;48.210;16.234;2023-06-10T10:39:55;98523.78;;;20.66;100.00
51099;BME280;37146;48.210;16.234;2023-06-10T10:42:21;98517.78;;;20.08;100.00
51099;BME280;37146;48.210;16.234;2023-06-10T10:44:47;98517.09;;;20.43;100.00
51099;BME280;37146;48.210;16.234;2023-06-10T10:47:12;98517.72;;;20.36;100.00
51099;BME280;37146;48.210;16.234;2023-06-10T10:49:38;98506.47;;;20.49;100.00
51099;BME280;37146;48.210;16.234;2023-06-10T10:52:05;98502.59;;;20.52;100.00
51099;BME280;37146;48.210;16.234;2023-06-10T10:54:35;98498.56;;;20.74;100.00
51099;BME280;37146;48.210;16.234;2023-06-10T11:04:57;98497.56;;;22.90;85.07
51099;BME280;37146;48.210;16.234;2023-06-10T11:07:24;98497.00;;;23.44;82.51
51099;BME280;37146;48.210;16.234;2023-06-10T11:10:02;98493.94;;;23.87;81.41
51099;BME280;37146;48.210;16.234;2023-06-10T11:15:12;98486.53;;;24.04;75.73
51099;BME280;37146;48.210;16.234;2023-06-10T11:18:05;98473.78;;;23.56;79.96
51099;BME280;37146;48.210;16.234;2023-06-10T11:23:07;98475.34;;;24.22;71.49
51099;BME280;37146;48.210;16.234;2023-06-10T11:25:39;98466.66;;;24.18;74.42
51099;BME280;37146;48.210;16.234;2023-06-10T11:28:16;98467.88;;;24.39;74.21
51099;BME280;37146;48.210;16.234;2023-06-10T11:30:42;98468.72;;;24.63;72.52
51099;BME280;37146;48.210;16.234;2023-06-10T11:33:07;98471.41;;;24.24;74.98
51099;BME280;37146;48.210;16.234;2023-06-10T11:35:33;98468.06;;;24.14;75.67
51099;BME280;37146;48.210;16.234;2023-06-10T11:37:58;98474.94;;;24.57;75.16
51099;BME280;37146;48.210;16.234;2023-06-10T11:40:23;98460.09;;;24.04;76.99
51099;BME280;37146;48.210;16.234;2023-06-10T11:42:49;98461.06;;;23.72;79.03
51099;BME280;37146;48.210;16.234;2023-06-10T11:45:15;98462.25;;;23.05;78.29
51099;BME280;37146;48.210;16.234;2023-06-10T11:47:42;98453.66;;;23.97;75.72
51099;BME280;37146;48.210;16.234;2023-06-10T11:50:27;98452.69;;;24.13;74.77
51099;BME280;37146;48.210;16.234;2023-06-10T11:52:52;98461.75;;;24.60;77.41
51099;BME280;37146;48.210;16.234;2023-06-10T11:55:21;98456.47;;;24.82;74.41
51099;BME280;37146;48.210;16.234;2023-06-10T11:57:46;98461.59;;;25.00;70.51
51099;BME280;37146;48.210;16.234;2023-06-10T12:00:11;98442.38;;;24.70;70.30
51099;BME280;37146;48.210;16.234;2023-06-10T12:02:37;98439.44;;;24.48;74.96
51099;BME280;37146;48.210;16.234;2023-06-10T12:05:12;98431.78;;;24.67;75.15
51099;BME280;37146;48.210;16.234;2023-06-10T12:07:37;98426.97;;;25.07;70.51
51099;BME280;37146;48.210;16.234;2023-06-10T12:10:02;98426.69;;;24.64;72.30
51099;BME280;37146;48.210;16.234;2023-06-10T12:12:29;98427.88;;;25.53;71.83
51099;BME280;37146;48.210;16.234;2023-06-10T12:14:58;98428.97;;;25.13;71.95
51099;BME280;37146;48.210;16.234;2023-06-10T12:19:49;98413.00;;;24.64;69.62
51099;BME280;37146;48.210;16.234;2023-06-10T12:22:15;98420.09;;;24.96;71.98
51099;BME280;37146;48.210;16.234;2023-06-10T12:24:44;98425.81;;;24.87;73.11
51099;BME280;37146;48.210;16.234;2023-06-10T12:27:13;98422.94;;;23.95;71.47
51099;BME280;37146;48.210;16.234;2023-06-10T12:29:38;98419.34;;;23.86;74.18
51099;BME280;37146;48.210;16.234;2023-06-10T12:32:04;98413.09;;;24.09;74.76
51099;BME280;37146;48.210;16.234;2023-06-10T12:34:36;98418.09;;;24.52;70.68
51099;BME280;37146;48.210;16.234;2023-06-10T12:37:02;98411.50;;;23.83;76.75
51099;BME280;37146;48.210;16.234;2023-06-10T12:39:29;98412.84;;;23.96;75.01
51099;BME280;37146;48.210;16.234;2023-06-10T12:41:54;98415.59;;;24.19;71.84
51099;BME280;37146;48.210;16.234;2023-06-10T12:44:28;98416.56;;;24.03;75.60
51099;BME280;37146;48.210;16.234;2023-06-10T12:46:56;98413.47;;;23.18;80.28
51099;BME280;37146;48.210;16.234;2023-06-10T12:49:22;98406.31;;;23.17;81.53
51099;BME280;37146;48.210;16.234;2023-06-10T12:51:47;98413.75;;;22.67;82.81
51099;BME280;37146;48.210;16.234;2023-06-10T12:54:12;98419.41;;;22.57;84.52
51099;BME280;37146;48.210;16.234;2023-06-10T12:56:38;98416.97;;;22.29;84.15
51099;BME280;37146;48.210;16.234;2023-06-10T12:59:03;98410.00;;;22.10;86.47